createdAt,value
2023-03-28T11:15:27.097Z,53.15
2023-03-28T11:18:18.604Z,53.01
2023-03-28T11:21:05.408Z,52.98
2023-03-28T11:23:39.174Z,53.21
2023-03-28T11:26:34.157Z,52.97
2023-03-28T11:29:40.209Z,52.91
2023-03-28T11:32:11.254Z,52.21
2023-03-28T11:34:43.376Z,52.32
2023-03-28T11:37:19.158Z,52.19
2023-03-28T11:39:53.059Z,52.08
2023-03-28T11:42:38.214Z,51.99
2023-03-28T11:45:14.789Z,52.05
2023-03-28T11:47:48.921Z,51.98
2023-03-28T11:50:17.313Z,52.00
2023-03-28T11:53:07.698Z,52.08
2023-03-28T11:55:50.320Z,51.79
2023-03-28T11:58:43.756Z,51.84
2023-03-28T12:01:23.134Z,51.81
2023-03-28T12:03:59.077Z,51.78
2023-03-28T12:06:35.422Z,51.56
2023-03-28T12:09:19.956Z,51.76
2023-03-28T12:11:48.283Z,51.49
2023-03-28T12:14:42.047Z,51.44
2023-03-28T12:17:24.887Z,51.22
2023-03-28T12:19:54.096Z,50.97
2023-03-28T12:22:26.873Z,50.58
2023-03-28T12:24:59.149Z,50.32
2023-03-28T12:27:42.591Z,49.67
2023-03-28T12:30:26.652Z,50.26
2023-03-28T12:33:06.573Z,50.13
2023-03-28T12:35:46.920Z,50.26
2023-03-28T12:38:33.344Z,49.91
2023-03-28T12:41:21.302Z,49.29
2023-03-28T12:44:04.633Z,49.35
2023-03-28T12:46:46.596Z,49.09
2023-03-28T12:49:37.910Z,48.92
2023-03-28T12:52:12.222Z,47.55
2023-03-28T12:55:03.101Z,45.81
2023-03-28T12:57:42.799Z,43.97
2023-03-28T13:00:53.724Z,42.71
2023-03-28T13:03:36.185Z,41.36
2023-03-28T13:06:26.380Z,40.58
2023-03-28T13:08:59.992Z,39.96
2023-03-28T13:11:48.280Z,39.42
2023-03-28T13:14:30.880Z,39.08
2023-03-28T13:16:58.181Z,38.91
2023-03-28T13:19:44.607Z,38.86
2023-03-28T13:22:32.002Z,38.82
2023-03-28T13:25:22.754Z,39.08
2023-03-28T13:27:51.245Z,40.00
2023-03-28T13:30:20.458Z,39.97
2023-03-28T13:32:52.749Z,39.56
2023-03-28T13:35:38.999Z,38.58
2023-03-28T13:38:22.743Z,38.00
2023-03-28T13:40:55.110Z,38.17
2023-03-28T13:43:25.628Z,37.67
2023-03-28T13:45:54.844Z,37.74
2023-03-28T13:48:24.870Z,37.11
2023-03-28T13:50:53.710Z,36.96
2023-03-28T13:53:20.998Z,36.82
2023-03-28T13:55:48.406Z,36.31
2023-03-28T13:58:17.297Z,36.37
2023-03-28T14:00:47.054Z,35.64
2023-03-28T14:03:15.261Z,35.17
2023-03-28T14:05:44.289Z,35.26
2023-03-28T14:08:15.106Z,35.19
2023-03-28T14:10:43.692Z,34.83
2023-03-28T14:13:15.135Z,35.33
2023-03-28T14:15:43.651Z,35.66
2023-03-28T14:18:19.123Z,35.78
2023-03-28T14:20:47.004Z,36.03
2023-03-28T14:23:30.969Z,35.48
2023-03-28T14:26:02.464Z,35.15
2023-03-28T14:28:30.803Z,34.87
2023-03-28T14:30:58.742Z,34.33
2023-03-28T14:33:26.404Z,34.50
2023-03-28T14:36:02.916Z,34.99
2023-03-28T14:38:38.493Z,35.21
2023-03-28T14:41:08.946Z,35.14
2023-03-28T14:43:37.437Z,35.05
2023-03-28T14:46:06.636Z,35.41
2023-03-28T14:48:35.352Z,35.54
2023-03-28T14:51:04.118Z,35.47
2023-03-28T14:53:53.118Z,35.40
2023-03-28T14:56:25.603Z,35.51
2023-03-28T14:58:54.492Z,35.78
2023-03-28T15:01:25.098Z,36.49
2023-03-28T15:03:59.943Z,37.00
2023-03-28T15:06:29.518Z,37.93
2023-03-28T15:09:04.202Z,38.73
2023-03-28T15:11:33.962Z,39.05
2023-03-28T15:14:12.714Z,39.29
2023-03-28T15:16:42.587Z,38.99
2023-03-28T15:19:23.016Z,38.86
2023-03-28T15:21:55.094Z,38.86
2023-03-28T15:24:23.079Z,38.89
2023-03-28T15:26:53.406Z,39.15
2023-03-28T15:29:21.775Z,39.25
2023-03-28T15:31:49.439Z,39.94
2023-03-28T15:34:29.270Z,40.71
2023-03-28T15:37:05.391Z,41.29
2023-03-28T15:39:34.064Z,42.31
2023-03-28T15:42:21.514Z,43.50
2023-03-28T15:44:57.885Z,45.04
2023-03-28T15:47:27.250Z,46.31
2023-03-28T15:50:05.007Z,47.05
2023-03-28T15:52:34.300Z,47.85
2023-03-28T15:55:02.041Z,48.34
2023-03-28T15:57:31.145Z,48.67
2023-03-28T16:00:00.330Z,49.06
2023-03-28T16:02:28.085Z,49.39
2023-03-28T16:05:02.949Z,49.62
2023-03-28T16:07:46.663Z,49.92
2023-03-28T16:10:18.199Z,49.88
2023-03-28T16:13:16.914Z,50.09
2023-03-28T16:16:18.825Z,50.14
2023-03-28T16:18:55.175Z,50.41
2023-03-28T16:21:22.733Z,50.53
2023-03-28T16:23:49.940Z,50.66
2023-03-28T16:26:17.238Z,50.63
2023-03-28T16:28:45.013Z,50.86
2023-03-28T16:31:15.824Z,50.90
2023-03-28T16:33:43.239Z,51.12
2023-03-28T16:36:12.300Z,51.17
2023-03-28T16:38:39.905Z,51.22
2023-03-28T16:41:07.457Z,51.34
2023-03-28T16:43:35.038Z,51.51
2023-03-28T16:46:02.921Z,51.65
2023-03-28T16:48:32.419Z,51.81
2023-03-28T16:51:04.945Z,51.96
2023-03-28T16:53:36.244Z,52.12
2023-03-28T16:56:04.582Z,51.99
2023-03-28T16:58:32.286Z,51.78
2023-03-28T17:01:14.040Z,52.11
2023-03-28T17:03:42.428Z,52.03
2023-03-28T17:06:09.975Z,52.10
2023-03-28T17:08:37.864Z,52.17
2023-03-28T17:11:10.060Z,52.22
2023-03-28T17:13:38.590Z,52.32
2023-03-28T17:16:07.891Z,52.42
2023-03-28T17:18:36.166Z,52.58
2023-03-28T17:21:07.935Z,52.68
2023-03-28T17:23:57.206Z,52.84
2023-03-28T17:26:24.833Z,52.86
2023-03-28T17:28:53.251Z,53.13
2023-03-28T17:31:21.171Z,53.11
2023-03-28T17:33:49.181Z,53.38
2023-03-28T17:36:21.432Z,53.33
2023-03-28T17:38:50.093Z,53.33
2023-03-28T17:41:17.923Z,53.33
2023-03-28T17:43:45.715Z,53.51
2023-03-28T17:46:13.033Z,53.37
2023-03-28T17:48:41.111Z,53.42
2023-03-28T17:51:10.232Z,53.46
2023-03-28T17:53:41.692Z,53.56
2023-03-28T17:56:09.795Z,53.54
2023-03-28T17:58:37.947Z,53.60
2023-03-28T18:01:12.907Z,53.67
2023-03-28T18:03:41.156Z,53.75
2023-03-28T18:06:35.395Z,53.80
2023-03-28T18:09:03.344Z,53.98
2023-03-28T18:11:31.883Z,53.99
2023-03-28T18:13:59.381Z,53.87
2023-03-28T18:16:27.821Z,54.07
2023-03-28T18:18:55.481Z,54.09
2023-03-28T18:21:22.938Z,54.13
2023-03-28T18:23:50.533Z,54.25
2023-03-28T18:26:17.762Z,54.23
2023-03-28T18:28:45.480Z,54.37
2023-03-28T18:31:17.589Z,54.55
2023-03-28T18:33:45.351Z,54.73
2023-03-28T18:36:13.973Z,54.50
2023-03-28T18:38:43.406Z,54.73
2023-03-28T18:41:12.734Z,54.71
2023-03-28T18:43:41.509Z,54.74
2023-03-28T18:46:10.130Z,54.92
2023-03-28T18:48:38.840Z,54.99
2023-03-28T18:51:09.013Z,55.07
2023-03-28T18:53:39.187Z,55.16
2023-03-28T18:56:08.166Z,55.25
2023-03-28T18:58:37.323Z,55.34
2023-03-28T19:01:06.690Z,55.51
2023-03-28T19:03:40.618Z,55.65
2023-03-28T19:06:09.529Z,55.77
2023-03-28T19:08:37.397Z,55.97
2023-03-28T19:11:07.922Z,56.04
2023-03-28T19:13:35.574Z,56.17
2023-03-28T19:16:07.878Z,56.40
2023-03-28T19:18:38.928Z,56.47
2023-03-28T19:21:07.309Z,56.65
2023-03-28T19:23:36.886Z,56.83
2023-03-28T19:26:05.709Z,57.06
2023-03-28T19:28:33.301Z,56.94
2023-03-28T19:31:02.050Z,57.20
2023-03-28T19:33:29.963Z,57.55
2023-03-28T19:35:57.810Z,57.53
2023-03-28T19:38:26.115Z,57.62
2023-03-28T19:40:57.872Z,57.92
2023-03-28T19:43:25.575Z,57.89
2023-03-28T19:45:53.216Z,57.87
2023-03-28T19:48:20.533Z,58.04
2023-03-28T19:50:49.151Z,57.96
2023-03-28T19:53:16.361Z,58.13
2023-03-28T19:55:43.854Z,58.46
2023-03-28T19:58:11.058Z,58.42
2023-03-28T20:00:38.429Z,58.23
2023-03-28T20:03:05.888Z,58.28
2023-03-28T20:05:33.150Z,58.19
2023-03-28T20:08:01.458Z,58.20
2023-03-28T20:10:28.637Z,58.24
2023-03-28T20:12:56.237Z,58.25
2023-03-28T20:15:23.842Z,58.20
2023-03-28T20:17:51.248Z,58.23
2023-03-28T20:20:19.824Z,58.28
2023-03-28T20:22:47.094Z,58.29
2023-03-28T20:25:14.986Z,58.35
2023-03-28T20:27:42.972Z,58.36
2023-03-28T20:30:11.257Z,58.39
2023-03-28T20:32:38.676Z,58.39
2023-03-28T20:35:06.927Z,58.46
2023-03-28T20:37:35.014Z,58.39
2023-03-28T20:40:10.620Z,58.45
2023-03-28T20:42:41.150Z,58.64
2023-03-28T20:45:09.448Z,58.64
2023-03-28T20:47:39.493Z,58.75
2023-03-28T20:50:08.986Z,58.91
2023-03-28T20:52:37.551Z,58.99
2023-03-28T20:55:05.832Z,58.89
2023-03-28T20:57:36.225Z,58.99
2023-03-28T21:00:07.226Z,59.02
2023-03-28T21:02:36.397Z,59.19
2023-03-28T21:05:04.854Z,59.10
2023-03-28T21:07:32.222Z,59.12
2023-03-28T21:09:59.988Z,59.33
2023-03-28T21:12:27.839Z,59.14
2023-03-28T21:14:58.302Z,59.06
2023-03-28T21:17:26.626Z,59.27
2023-03-28T21:19:54.258Z,59.26
2023-03-28T21:22:22.495Z,59.41
2023-03-28T21:24:50.936Z,59.55
2023-03-28T21:27:18.365Z,59.46
2023-03-28T21:29:45.704Z,59.51
2023-03-28T21:32:14.705Z,59.67
2023-03-28T21:34:43.233Z,59.67
2023-03-28T21:37:12.090Z,59.75
2023-03-28T21:39:39.731Z,59.83
2023-03-28T21:42:07.468Z,59.99
2023-03-28T21:44:35.019Z,60.02
2023-03-28T21:47:02.436Z,59.98
2023-03-28T21:49:30.736Z,59.79
2023-03-28T21:51:58.194Z,59.77
2023-03-28T21:54:25.928Z,59.87
2023-03-28T21:56:53.613Z,59.77
2023-03-28T21:59:21.087Z,59.83
2023-03-28T22:01:48.402Z,59.92
2023-03-28T22:04:16.003Z,59.86
2023-03-28T22:06:43.350Z,60.23
2023-03-28T22:09:10.853Z,60.12
2023-03-28T22:11:39.896Z,60.33
2023-03-28T22:14:07.568Z,60.54
2023-03-28T22:16:37.722Z,60.71
2023-03-28T22:19:05.979Z,60.80
2023-03-28T22:21:33.358Z,60.81
2023-03-28T22:24:02.675Z,60.88
2023-03-28T22:26:30.884Z,61.07
2023-03-28T22:28:58.726Z,61.12
2023-03-28T22:31:26.756Z,61.09
2023-03-28T22:33:54.645Z,60.87
2023-03-28T22:36:22.057Z,61.01
2023-03-28T22:38:50.259Z,61.21
2023-03-28T22:41:17.623Z,61.17
2023-03-28T22:43:45.175Z,61.23
2023-03-28T22:46:12.943Z,61.27
2023-03-28T22:48:40.393Z,61.50
2023-03-28T22:51:12.035Z,61.33
2023-03-28T22:53:40.187Z,61.35
2023-03-28T22:56:08.642Z,61.40
2023-03-28T22:58:37.353Z,61.61
2023-03-28T23:01:04.701Z,61.55
2023-03-28T23:03:32.554Z,61.65
2023-03-28T23:06:06.992Z,61.70
2023-03-28T23:08:35.017Z,61.71
2023-03-28T23:11:02.462Z,61.75
2023-03-28T23:13:29.933Z,62.07
2023-03-28T23:15:57.662Z,62.06
2023-03-28T23:18:24.904Z,62.02
2023-03-28T23:20:52.438Z,61.95
2023-03-28T23:23:19.606Z,61.69
2023-03-28T23:25:47.471Z,62.01
2023-03-28T23:28:15.126Z,61.94
2023-03-28T23:30:42.350Z,62.06
2023-03-28T23:33:09.806Z,61.99
2023-03-28T23:35:37.427Z,61.92
2023-03-28T23:38:05.415Z,61.67
2023-03-28T23:40:32.657Z,61.61
2023-03-28T23:43:00.275Z,61.39
2023-03-28T23:45:27.699Z,61.35
2023-03-28T23:47:55.027Z,61.26
2023-03-28T23:50:22.445Z,61.18
2023-03-28T23:52:50.492Z,61.02
2023-03-28T23:55:17.760Z,61.00
2023-03-28T23:57:45.297Z,60.89
